sensor_id;sensor_type;location;lat;lon;timestamp;P1;durP1;ratioP1;P2;durP2;ratioP2
53674;SDS011;39574;50.534;8.500;2023-01-25T00:02:31;19.7;;;11.1;;
53674;SDS011;39574;50.534;8.500;2023-01-25T00:07:30;19.9;;;11.4;;
53674;SDS011;39574;50.534;8.500;2023-01-25T00:12:28;18.9;;;11.1;;
53674;SDS011;39574;50.534;8.500;2023-01-25T00:17:27;18.3;;;10.7;;
53674;SDS011;39574;50.534;8.500;2023-01-25T00:22:26;18.6;;;10.7;;
53674;SDS011;39574;50.534;8.500;2023-01-25T00:27:24;18.6;;;10.8;;
53674;SDS011;39574;50.534;8.500;2023-01-25T00:32:27;19.9;;;11.3;;
53674;SDS011;39574;50.534;8.500;2023-01-25T00:37:23;19.5;;;11.2;;
53674;SDS011;39574;50.534;8.500;2023-01-25T00:42:21;18.5;;;10.9;;
53674;SDS011;39574;50.534;8.500;2023-01-25T00:47:19;18.3;;;10.6;;
53674;SDS011;39574;50.534;8.500;2023-01-25T00:52:18;17.6;;;10.4;;
53674;SDS011;39574;50.534;8.500;2023-01-25T00:57:16;18.1;;;10.6;;
53674;SDS011;39574;50.534;8.500;2023-01-25T01:02:15;17.8;;;10.4;;
53674;SDS011;39574;50.534;8.500;2023-01-25T01:07:14;17.4;;;10.3;;
53674;SDS011;39574;50.534;8.500;2023-01-25T01:12:12;17.6;;;10.1;;
53674;SDS011;39574;50.534;8.500;2023-01-25T01:17:11;18.4;;;10.5;;
53674;SDS011;39574;50.534;8.500;2023-01-25T01:22:10;19.0;;;10.9;;
53674;SDS011;39574;50.534;8.500;2023-01-25T01:27:08;19.8;;;11.2;;
53674;SDS011;39574;50.534;8.500;2023-01-25T01:32:07;20.1;;;11.3;;
53674;SDS011;39574;50.534;8.500;2023-01-25T01:37:06;20.5;;;11.6;;
53674;SDS011;39574;50.534;8.500;2023-01-25T01:42:04;20.6;;;11.9;;
53674;SDS011;39574;50.534;8.500;2023-01-25T01:47:03;20.5;;;11.9;;
53674;SDS011;39574;50.534;8.500;2023-01-25T01:52:02;20.5;;;11.4;;
53674;SDS011;39574;50.534;8.500;2023-01-25T01:57:01;19.9;;;11.0;;
53674;SDS011;39574;50.534;8.500;2023-01-25T02:01:59;18.9;;;10.7;;
53674;SDS011;39574;50.534;8.500;2023-01-25T02:06:59;18.7;;;10.7;;
53674;SDS011;39574;50.534;8.500;2023-01-25T02:11:56;18.6;;;10.7;;
53674;SDS011;39574;50.534;8.500;2023-01-25T02:16:55;20.8;;;11.8;;
53674;SDS011;39574;50.534;8.500;2023-01-25T02:21:54;22.4;;;12.1;;
53674;SDS011;39574;50.534;8.500;2023-01-25T02:26:53;21.2;;;11.9;;
53674;SDS011;39574;50.534;8.500;2023-01-25T02:31:57;20.8;;;11.8;;
53674;SDS011;39574;50.534;8.500;2023-01-25T02:36:50;20.6;;;11.6;;
53674;SDS011;39574;50.534;8.500;2023-01-25T02:41:48;21.6;;;11.7;;
53674;SDS011;39574;50.534;8.500;2023-01-25T02:46:47;21.1;;;11.5;;
53674;SDS011;39574;50.534;8.500;2023-01-25T02:51:46;21.2;;;11.6;;
53674;SDS011;39574;50.534;8.500;2023-01-25T02:56:45;20.7;;;11.4;;
53674;SDS011;39574;50.534;8.500;2023-01-25T03:01:44;21.6;;;11.9;;
53674;SDS011;39574;50.534;8.500;2023-01-25T03:06:42;21.8;;;11.7;;
53674;SDS011;39574;50.534;8.500;2023-01-25T03:11:41;22.6;;;11.7;;
53674;SDS011;39574;50.534;8.500;2023-01-25T03:16:39;22.9;;;12.1;;
53674;SDS011;39574;50.534;8.500;2023-01-25T03:21:38;23.1;;;12.2;;
53674;SDS011;39574;50.534;8.500;2023-01-25T03:26:37;22.9;;;12.5;;
53674;SDS011;39574;50.534;8.500;2023-01-25T03:31:36;22.6;;;12.3;;
53674;SDS011;39574;50.534;8.500;2023-01-25T03:36:34;22.6;;;12.1;;
53674;SDS011;39574;50.534;8.500;2023-01-25T03:41:33;27.1;;;13.4;;
53674;SDS011;39574;50.534;8.500;2023-01-25T03:46:31;26.6;;;13.5;;
53674;SDS011;39574;50.534;8.500;2023-01-25T03:51:30;26.7;;;13.6;;
53674;SDS011;39574;50.534;8.500;2023-01-25T03:56:29;25.2;;;12.9;;
53674;SDS011;39574;50.534;8.500;2023-01-25T04:01:28;23.2;;;12.3;;
53674;SDS011;39574;50.534;8.500;2023-01-25T04:06:26;24.5;;;12.4;;
53674;SDS011;39574;50.534;8.500;2023-01-25T04:11:25;23.3;;;11.9;;
53674;SDS011;39574;50.534;8.500;2023-01-25T04:16:24;21.3;;;11.3;;
53674;SDS011;39574;50.534;8.500;2023-01-25T04:21:22;20.5;;;11.1;;
53674;SDS011;39574;50.534;8.500;2023-01-25T04:26:21;20.4;;;10.9;;
53674;SDS011;39574;50.534;8.500;2023-01-25T04:31:20;23.0;;;11.4;;
53674;SDS011;39574;50.534;8.500;2023-01-25T04:36:18;22.1;;;11.1;;
53674;SDS011;39574;50.534;8.500;2023-01-25T04:41:17;21.9;;;11.2;;
53674;SDS011;39574;50.534;8.500;2023-01-25T04:46:16;21.5;;;11.0;;
53674;SDS011;39574;50.534;8.500;2023-01-25T04:51:14;21.4;;;11.3;;
53674;SDS011;39574;50.534;8.500;2023-01-25T04:56:13;21.9;;;11.6;;
53674;SDS011;39574;50.534;8.500;2023-01-25T05:01:12;22.3;;;11.7;;
53674;SDS011;39574;50.534;8.500;2023-01-25T05:06:10;22.7;;;11.4;;
53674;SDS011;39574;50.534;8.500;2023-01-25T05:11:09;22.1;;;11.2;;
53674;SDS011;39574;50.534;8.500;2023-01-25T05:16:08;21.7;;;11.1;;
53674;SDS011;39574;50.534;8.500;2023-01-25T05:21:06;22.1;;;11.6;;
53674;SDS011;39574;50.534;8.500;2023-01-25T05:26:06;22.6;;;12.1;;
53674;SDS011;39574;50.534;8.500;2023-01-25T05:31:04;23.0;;;12.1;;
53674;SDS011;39574;50.534;8.500;2023-01-25T05:36:02;23.5;;;12.0;;
53674;SDS011;39574;50.534;8.500;2023-01-25T05:41:01;24.5;;;12.4;;
53674;SDS011;39574;50.534;8.500;2023-01-25T05:46:00;25.5;;;12.7;;
53674;SDS011;39574;50.534;8.500;2023-01-25T05:50:58;26.2;;;13.3;;
53674;SDS011;39574;50.534;8.500;2023-01-25T05:56:02;26.9;;;13.6;;
53674;SDS011;39574;50.534;8.500;2023-01-25T06:00:58;25.4;;;13.0;;
53674;SDS011;39574;50.534;8.500;2023-01-25T06:05:55;24.6;;;12.5;;
53674;SDS011;39574;50.534;8.500;2023-01-25T06:10:53;22.7;;;11.6;;
53674;SDS011;39574;50.534;8.500;2023-01-25T06:15:52;22.2;;;11.4;;
53674;SDS011;39574;50.534;8.500;2023-01-25T06:20:51;20.6;;;10.8;;
53674;SDS011;39574;50.534;8.500;2023-01-25T06:25:49;21.2;;;11.0;;
53674;SDS011;39574;50.534;8.500;2023-01-25T06:30:48;21.2;;;11.2;;
53674;SDS011;39574;50.534;8.500;2023-01-25T06:35:48;20.5;;;10.9;;
53674;SDS011;39574;50.534;8.500;2023-01-25T06:40:45;20.5;;;10.8;;
53674;SDS011;39574;50.534;8.500;2023-01-25T06:45:44;27.6;;;14.7;;
53674;SDS011;39574;50.534;8.500;2023-01-25T06:50:43;28.3;;;15.0;;
53674;SDS011;39574;50.534;8.500;2023-01-25T06:55:42;30.8;;;16.5;;
53674;SDS011;39574;50.534;8.500;2023-01-25T07:00:40;30.0;;;15.3;;
53674;SDS011;39574;50.534;8.500;2023-01-25T07:05:39;36.0;;;17.6;;
53674;SDS011;39574;50.534;8.500;2023-01-25T07:10:37;33.2;;;16.1;;
53674;SDS011;39574;50.534;8.500;2023-01-25T07:15:36;31.2;;;15.1;;
53674;SDS011;39574;50.534;8.500;2023-01-25T07:20:35;32.9;;;16.0;;
53674;SDS011;39574;50.534;8.500;2023-01-25T07:25:33;31.2;;;15.3;;
53674;SDS011;39574;50.534;8.500;2023-01-25T07:30:32;31.2;;;15.1;;
53674;SDS011;39574;50.534;8.500;2023-01-25T07:35:31;30.8;;;15.0;;
53674;SDS011;39574;50.534;8.500;2023-01-25T07:40:29;28.9;;;14.2;;
53674;SDS011;39574;50.534;8.500;2023-01-25T07:45:29;26.6;;;13.1;;
53674;SDS011;39574;50.534;8.500;2023-01-25T07:50:27;25.4;;;12.6;;
53674;SDS011;39574;50.534;8.500;2023-01-25T07:55:25;25.6;;;13.0;;
53674;SDS011;39574;50.534;8.500;2023-01-25T08:00:24;25.6;;;13.3;;
53674;SDS011;39574;50.534;8.500;2023-01-25T08:05:23;27.5;;;14.1;;
53674;SDS011;39574;50.534;8.500;2023-01-25T08:15:20;29.5;;;14.6;;
53674;SDS011;39574;50.534;8.500;2023-01-25T08:40:16;29.9;;;14.9;;
53674;SDS011;39574;50.534;8.500;2023-01-25T08:45:12;29.3;;;14.8;;
53674;SDS011;39574;50.534;8.500;2023-01-25T08:50:11;28.2;;;14.7;;
53674;SDS011;39574;50.534;8.500;2023-01-25T08:55:10;29.4;;;14.9;;
53674;SDS011;39574;50.534;8.500;2023-01-25T09:00:09;32.1;;;16.4;;
53674;SDS011;39574;50.534;8.500;2023-01-25T09:05:08;33.7;;;17.8;;
53674;SDS011;39574;50.534;8.500;2023-01-25T09:10:06;31.9;;;16.8;;
53674;SDS011;39574;50.534;8.500;2023-01-25T09:15:05;27.9;;;15.0;;
53674;SDS011;39574;50.534;8.500;2023-01-25T09:25:02;27.9;;;14.1;;
53674;SDS011;39574;50.534;8.500;2023-01-25T09:30:01;26.3;;;13.1;;
53674;SDS011;39574;50.534;8.500;2023-01-25T09:34:59;26.0;;;12.7;;
53674;SDS011;39574;50.534;8.500;2023-01-25T09:39:58;26.1;;;13.2;;
53674;SDS011;39574;50.534;8.500;2023-01-25T09:45:01;26.3;;;13.5;;
53674;SDS011;39574;50.534;8.500;2023-01-25T09:49:59;26.4;;;13.5;;
53674;SDS011;39574;50.534;8.500;2023-01-25T09:54:54;25.8;;;13.4;;
53674;SDS011;39574;50.534;8.500;2023-01-25T09:59:53;27.5;;;14.7;;
53674;SDS011;39574;50.534;8.500;2023-01-25T10:04:52;28.0;;;14.4;;
53674;SDS011;39574;50.534;8.500;2023-01-25T10:09:51;29.9;;;15.0;;
53674;SDS011;39574;50.534;8.500;2023-01-25T10:14:49;29.8;;;14.9;;
53674;SDS011;39574;50.534;8.500;2023-01-25T10:19:51;29.5;;;14.3;;
53674;SDS011;39574;50.534;8.500;2023-01-25T10:25:18;29.5;;;14.4;;
53674;SDS011;39574;50.534;8.500;2023-01-25T10:29:45;28.4;;;14.4;;
53674;SDS011;39574;50.534;8.500;2023-01-25T10:34:44;28.2;;;14.4;;
53674;SDS011;39574;50.534;8.500;2023-01-25T10:39:44;29.3;;;14.9;;
53674;SDS011;39574;50.534;8.500;2023-01-25T10:44:41;29.7;;;14.8;;
53674;SDS011;39574;50.534;8.500;2023-01-25T10:49:40;30.7;;;15.1;;
53674;SDS011;39574;50.534;8.500;2023-01-25T10:54:38;29.3;;;14.7;;
53674;SDS011;39574;50.534;8.500;2023-01-25T10:59:37;30.6;;;14.8;;
53674;SDS011;39574;50.534;8.500;2023-01-25T11:04:35;29.4;;;14.4;;
53674;SDS011;39574;50.534;8.500;2023-01-25T11:09:35;27.7;;;14.0;;
53674;SDS011;39574;50.534;8.500;2023-01-25T11:14:33;27.9;;;13.8;;
53674;SDS011;39574;50.534;8.500;2023-01-25T11:19:32;26.9;;;13.4;;
53674;SDS011;39574;50.534;8.500;2023-01-25T11:24:31;27.7;;;13.7;;
53674;SDS011;39574;50.534;8.500;2023-01-25T11:29:29;28.8;;;14.1;;
53674;SDS011;39574;50.534;8.500;2023-01-25T11:34:28;29.7;;;14.3;;
53674;SDS011;39574;50.534;8.500;2023-01-25T11:39:30;30.2;;;14.7;;
53674;SDS011;39574;50.534;8.500;2023-01-25T11:44:40;30.5;;;14.6;;
53674;SDS011;39574;50.534;8.500;2023-01-25T11:49:26;29.3;;;14.3;;
53674;SDS011;39574;50.534;8.500;2023-01-25T11:54:27;29.0;;;14.1;;
53674;SDS011;39574;50.534;8.500;2023-01-25T11:59:25;28.1;;;13.8;;
53674;SDS011;39574;50.534;8.500;2023-01-25T12:04:29;27.5;;;13.5;;
53674;SDS011;39574;50.534;8.500;2023-01-25T12:09:25;29.5;;;13.8;;
53674;SDS011;39574;50.534;8.500;2023-01-25T12:14:19;30.4;;;14.3;;
53674;SDS011;39574;50.534;8.500;2023-01-25T12:19:20;29.7;;;14.1;;
53674;SDS011;39574;50.534;8.500;2023-01-25T12:24:18;30.6;;;14.7;;
53674;SDS011;39574;50.534;8.500;2023-01-25T12:29:16;31.4;;;15.1;;
53674;SDS011;39574;50.534;8.500;2023-01-25T12:34:13;31.4;;;15.3;;
53674;SDS011;39574;50.534;8.500;2023-01-25T12:39:11;30.2;;;14.6;;
53674;SDS011;39574;50.534;8.500;2023-01-25T12:44:12;28.8;;;14.2;;
53674;SDS011;39574;50.534;8.500;2023-01-25T12:49:10;29.5;;;14.7;;
53674;SDS011;39574;50.534;8.500;2023-01-25T12:54:09;29.2;;;14.3;;
53674;SDS011;39574;50.534;8.500;2023-01-25T12:59:05;28.9;;;14.2;;
53674;SDS011;39574;50.534;8.500;2023-01-25T13:04:08;32.8;;;14.8;;
53674;SDS011;39574;50.534;8.500;2023-01-25T13:09:03;31.2;;;14.3;;
53674;SDS011;39574;50.534;8.500;2023-01-25T13:14:34;30.2;;;14.1;;
53674;SDS011;39574;50.534;8.500;2023-01-25T13:18:59;30.6;;;13.7;;
53674;SDS011;39574;50.534;8.500;2023-01-25T13:28:57;29.7;;;13.6;;
53674;SDS011;39574;50.534;8.500;2023-01-25T13:33:55;29.5;;;13.7;;
53674;SDS011;39574;50.534;8.500;2023-01-25T13:38:54;28.6;;;13.7;;
53674;SDS011;39574;50.534;8.500;2023-01-25T13:44:00;28.5;;;14.5;;
53674;SDS011;39574;50.534;8.500;2023-01-25T13:48:54;28.2;;;14.6;;
53674;SDS011;39574;50.534;8.500;2023-01-25T13:53:53;33.1;;;14.7;;
53674;SDS011;39574;50.534;8.500;2023-01-25T13:58:49;33.8;;;14.6;;
53674;SDS011;39574;50.534;8.500;2023-01-25T14:03:48;30.4;;;13.6;;
53674;SDS011;39574;50.534;8.500;2023-01-25T14:08:46;39.7;;;20.7;;
53674;SDS011;39574;50.534;8.500;2023-01-25T14:14:01;35.6;;;19.1;;
53674;SDS011;39574;50.534;8.500;2023-01-25T14:18:43;32.2;;;16.6;;
53674;SDS011;39574;50.534;8.500;2023-01-25T14:23:42;31.7;;;14.4;;
53674;SDS011;39574;50.534;8.500;2023-01-25T14:28:42;28.0;;;12.5;;
53674;SDS011;39574;50.534;8.500;2023-01-25T14:33:39;28.4;;;12.4;;
53674;SDS011;39574;50.534;8.500;2023-01-25T14:38:38;27.3;;;12.3;;
53674;SDS011;39574;50.534;8.500;2023-01-25T14:43:36;26.5;;;12.0;;
53674;SDS011;39574;50.534;8.500;2023-01-25T14:48:36;25.5;;;12.1;;
53674;SDS011;39574;50.534;8.500;2023-01-25T14:53:34;25.6;;;12.5;;
53674;SDS011;39574;50.534;8.500;2023-01-25T14:58:33;26.1;;;12.2;;
53674;SDS011;39574;50.534;8.500;2023-01-25T15:03:31;25.6;;;12.0;;
53674;SDS011;39574;50.534;8.500;2023-01-25T15:08:34;26.8;;;12.4;;
53674;SDS011;39574;50.534;8.500;2023-01-25T15:13:28;25.7;;;12.3;;
53674;SDS011;39574;50.534;8.500;2023-01-25T15:18:43;24.5;;;11.7;;
53674;SDS011;39574;50.534;8.500;2023-01-25T15:23:26;24.2;;;11.5;;
53674;SDS011;39574;50.534;8.500;2023-01-25T15:28:25;24.4;;;11.4;;
53674;SDS011;39574;50.534;8.500;2023-01-25T15:33:24;23.7;;;10.8;;
53674;SDS011;39574;50.534;8.500;2023-01-25T15:38:22;24.2;;;10.9;;
53674;SDS011;39574;50.534;8.500;2023-01-25T15:43:20;22.7;;;10.6;;
53674;SDS011;39574;50.534;8.500;2023-01-25T15:48:31;22.7;;;10.6;;
53674;SDS011;39574;50.534;8.500;2023-01-25T15:53:18;23.4;;;11.1;;
53674;SDS011;39574;50.534;8.500;2023-01-25T15:58:19;21.9;;;10.7;;
53674;SDS011;39574;50.534;8.500;2023-01-25T16:03:15;21.2;;;10.3;;
53674;SDS011;39574;50.534;8.500;2023-01-25T16:08:14;21.6;;;10.3;;
53674;SDS011;39574;50.534;8.500;2023-01-25T16:13:13;21.8;;;10.3;;
53674;SDS011;39574;50.534;8.500;2023-01-25T16:18:11;20.9;;;9.6;;
53674;SDS011;39574;50.534;8.500;2023-01-25T16:23:10;20.9;;;9.9;;
53674;SDS011;39574;50.534;8.500;2023-01-25T16:28:10;20.4;;;9.8;;
53674;SDS011;39574;50.534;8.500;2023-01-25T16:33:07;20.3;;;9.6;;
53674;SDS011;39574;50.534;8.500;2023-01-25T16:38:08;18.9;;;9.3;;
53674;SDS011;39574;50.534;8.500;2023-01-25T16:43:04;20.9;;;10.2;;
53674;SDS011;39574;50.534;8.500;2023-01-25T16:48:03;22.1;;;10.9;;
53674;SDS011;39574;50.534;8.500;2023-01-25T16:53:02;22.6;;;11.0;;
53674;SDS011;39574;50.534;8.500;2023-01-25T16:58:00;21.8;;;10.6;;
53674;SDS011;39574;50.534;8.500;2023-01-25T17:02:59;20.3;;;10.2;;
53674;SDS011;39574;50.534;8.500;2023-01-25T17:07:58;18.5;;;9.1;;
53674;SDS011;39574;50.534;8.500;2023-01-25T17:12:57;17.9;;;8.8;;
53674;SDS011;39574;50.534;8.500;2023-01-25T17:17:55;18.5;;;8.8;;
53674;SDS011;39574;50.534;8.500;2023-01-25T17:22:53;17.6;;;8.4;;
53674;SDS011;39574;50.534;8.500;2023-01-25T17:27:52;17.6;;;8.5;;
53674;SDS011;39574;50.534;8.500;2023-01-25T17:32:51;18.2;;;9.3;;
53674;SDS011;39574;50.534;8.500;2023-01-25T17:37:52;18.3;;;9.6;;
53674;SDS011;39574;50.534;8.500;2023-01-25T17:42:48;19.2;;;10.2;;
53674;SDS011;39574;50.534;8.500;2023-01-25T17:47:47;20.2;;;10.2;;
53674;SDS011;39574;50.534;8.500;2023-01-25T17:52:45;20.2;;;9.9;;
53674;SDS011;39574;50.534;8.500;2023-01-25T17:57:44;22.0;;;10.4;;
53674;SDS011;39574;50.534;8.500;2023-01-25T18:02:43;23.2;;;10.3;;
53674;SDS011;39574;50.534;8.500;2023-01-25T18:07:41;21.9;;;10.0;;
53674;SDS011;39574;50.534;8.500;2023-01-25T18:12:40;21.0;;;9.7;;
53674;SDS011;39574;50.534;8.500;2023-01-25T18:17:39;20.3;;;10.3;;
53674;SDS011;39574;50.534;8.500;2023-01-25T18:22:37;20.6;;;10.3;;
53674;SDS011;39574;50.534;8.500;2023-01-25T18:27:36;20.6;;;10.2;;
53674;SDS011;39574;50.534;8.500;2023-01-25T18:32:34;20.8;;;9.9;;
53674;SDS011;39574;50.534;8.500;2023-01-25T18:37:33;21.0;;;9.7;;
53674;SDS011;39574;50.534;8.500;2023-01-25T18:42:31;21.0;;;9.3;;
53674;SDS011;39574;50.534;8.500;2023-01-25T18:47:30;20.9;;;9.9;;
53674;SDS011;39574;50.534;8.500;2023-01-25T18:52:29;20.4;;;9.6;;
53674;SDS011;39574;50.534;8.500;2023-01-25T19:02:27;21.5;;;9.7;;
53674;SDS011;39574;50.534;8.500;2023-01-25T19:07:25;25.0;;;10.5;;
53674;SDS011;39574;50.534;8.500;2023-01-25T19:12:23;22.7;;;10.0;;
53674;SDS011;39574;50.534;8.500;2023-01-25T19:22:21;20.4;;;9.6;;
53674;SDS011;39574;50.534;8.500;2023-01-25T19:27:19;18.7;;;9.2;;
53674;SDS011;39574;50.534;8.500;2023-01-25T19:32:18;17.6;;;8.8;;
53674;SDS011;39574;50.534;8.500;2023-01-25T19:37:16;18.1;;;9.2;;
53674;SDS011;39574;50.534;8.500;2023-01-25T19:42:15;19.9;;;9.2;;
53674;SDS011;39574;50.534;8.500;2023-01-25T19:47:13;17.5;;;8.3;;
53674;SDS011;39574;50.534;8.500;2023-01-25T19:52:12;15.6;;;7.7;;
53674;SDS011;39574;50.534;8.500;2023-01-25T19:57:11;16.4;;;7.9;;
53674;SDS011;39574;50.534;8.500;2023-01-25T20:02:09;16.9;;;8.2;;
53674;SDS011;39574;50.534;8.500;2023-01-25T20:07:08;19.2;;;9.2;;
53674;SDS011;39574;50.534;8.500;2023-01-25T20:12:06;21.0;;;9.8;;
53674;SDS011;39574;50.534;8.500;2023-01-25T20:17:05;19.9;;;9.7;;
53674;SDS011;39574;50.534;8.500;2023-01-25T20:22:03;20.7;;;9.6;;
53674;SDS011;39574;50.534;8.500;2023-01-25T20:27:02;20.5;;;9.3;;
53674;SDS011;39574;50.534;8.500;2023-01-25T20:32:00;19.2;;;8.9;;
53674;SDS011;39574;50.534;8.500;2023-01-25T20:36:59;21.4;;;9.9;;
53674;SDS011;39574;50.534;8.500;2023-01-25T20:41:58;21.3;;;10.0;;
53674;SDS011;39574;50.534;8.500;2023-01-25T20:46:56;20.2;;;9.6;;
53674;SDS011;39574;50.534;8.500;2023-01-25T20:51:55;20.3;;;9.6;;
53674;SDS011;39574;50.534;8.500;2023-01-25T20:56:53;20.3;;;9.4;;
53674;SDS011;39574;50.534;8.500;2023-01-25T21:01:52;20.5;;;9.8;;
53674;SDS011;39574;50.534;8.500;2023-01-25T21:06:50;24.3;;;11.3;;
53674;SDS011;39574;50.534;8.500;2023-01-25T21:11:49;27.5;;;12.2;;
53674;SDS011;39574;50.534;8.500;2023-01-25T21:16:48;28.6;;;13.4;;
53674;SDS011;39574;50.534;8.500;2023-01-25T21:21:46;30.6;;;14.6;;
53674;SDS011;39574;50.534;8.500;2023-01-25T21:26:45;27.1;;;12.6;;
53674;SDS011;39574;50.534;8.500;2023-01-25T21:31:43;27.2;;;11.8;;
53674;SDS011;39574;50.534;8.500;2023-01-25T21:36:42;26.1;;;11.2;;
53674;SDS011;39574;50.534;8.500;2023-01-25T21:41:41;22.1;;;9.9;;
53674;SDS011;39574;50.534;8.500;2023-01-25T21:46:39;19.2;;;8.9;;
53674;SDS011;39574;50.534;8.500;2023-01-25T21:51:38;17.1;;;8.5;;
53674;SDS011;39574;50.534;8.500;2023-01-25T21:56:36;16.5;;;8.2;;
53674;SDS011;39574;50.534;8.500;2023-01-25T22:01:35;17.4;;;8.8;;
53674;SDS011;39574;50.534;8.500;2023-01-25T22:06:33;17.3;;;8.6;;
53674;SDS011;39574;50.534;8.500;2023-01-25T22:11:32;17.4;;;8.7;;
53674;SDS011;39574;50.534;8.500;2023-01-25T22:16:31;17.3;;;8.7;;
53674;SDS011;39574;50.534;8.500;2023-01-25T22:21:30;17.0;;;8.6;;
53674;SDS011;39574;50.534;8.500;2023-01-25T22:26:29;19.1;;;10.3;;
53674;SDS011;39574;50.534;8.500;2023-01-25T22:31:26;18.4;;;10.0;;
53674;SDS011;39574;50.534;8.500;2023-01-25T22:36:26;18.3;;;9.6;;
53674;SDS011;39574;50.534;8.500;2023-01-25T22:41:24;17.4;;;9.1;;
53674;SDS011;39574;50.534;8.500;2023-01-25T22:46:23;16.9;;;8.5;;
53674;SDS011;39574;50.534;8.500;2023-01-25T22:51:21;17.4;;;8.8;;
53674;SDS011;39574;50.534;8.500;2023-01-25T22:56:19;17.2;;;8.7;;
53674;SDS011;39574;50.534;8.500;2023-01-25T23:01:18;18.7;;;9.5;;
53674;SDS011;39574;50.534;8.500;2023-01-25T23:06:17;18.8;;;9.8;;
53674;SDS011;39574;50.534;8.500;2023-01-25T23:11:16;18.0;;;9.8;;
53674;SDS011;39574;50.534;8.500;2023-01-25T23:16:13;19.0;;;10.1;;
53674;SDS011;39574;50.534;8.500;2023-01-25T23:21:11;19.3;;;10.0;;
53674;SDS011;39574;50.534;8.500;2023-01-25T23:26:10;19.0;;;9.6;;
53674;SDS011;39574;50.534;8.500;2023-01-25T23:31:10;18.7;;;9.3;;
53674;SDS011;39574;50.534;8.500;2023-01-25T23:36:07;20.6;;;10.0;;
53674;SDS011;39574;50.534;8.500;2023-01-25T23:41:06;20.7;;;10.1;;
53674;SDS011;39574;50.534;8.500;2023-01-25T23:46:05;20.7;;;10.3;;
53674;SDS011;39574;50.534;8.500;2023-01-25T23:51:03;20.0;;;10.1;;
53674;SDS011;39574;50.534;8.500;2023-01-25T23:56:02;19.7;;;10.3;;
